createdAt,value
2022-09-04T00:00:18.726Z,6.15
2022-09-04T00:01:45.213Z,4.13
2022-09-04T00:02:50.473Z,4.68
2022-09-04T00:04:19.106Z,7.35
2022-09-04T00:05:35.244Z,4.30
2022-09-04T00:06:49.669Z,7.13
2022-09-04T00:07:57.902Z,4.50
2022-09-04T00:09:05.302Z,6.80
2022-09-04T00:10:16.768Z,4.82
2022-09-04T00:11:44.857Z,4.00
2022-09-04T00:12:55.647Z,4.22
2022-09-04T00:14:00.689Z,5.22
2022-09-04T00:15:11.752Z,8.50
2022-09-04T00:16:24.823Z,5.90
2022-09-04T00:17:39.018Z,5.93
2022-09-04T00:18:53.413Z,4.40
2022-09-04T00:20:01.380Z,5.32
2022-09-04T00:21:30.415Z,4.25
2022-09-04T00:23:11.079Z,6.18
2022-09-04T00:24:19.103Z,5.55
2022-09-04T00:25:38.323Z,10.30
2022-09-04T00:26:58.624Z,6.43
2022-09-04T00:28:11.942Z,6.80
2022-09-04T00:29:51.917Z,4.38
2022-09-04T00:31:06.910Z,8.13
2022-09-04T00:32:38.614Z,4.57
2022-09-04T00:34:07.302Z,5.13
2022-09-04T00:35:24.688Z,4.95
2022-09-04T00:36:28.272Z,4.88
2022-09-04T00:37:38.057Z,8.05
2022-09-04T00:38:51.520Z,5.20
2022-09-04T00:40:00.479Z,4.97
2022-09-04T00:41:30.879Z,5.93
2022-09-04T00:43:07.010Z,6.50
2022-09-04T00:44:28.280Z,5.38
2022-09-04T00:46:08.158Z,6.97
2022-09-04T00:47:35.342Z,5.00
2022-09-04T00:49:05.216Z,5.47
2022-09-04T00:50:09.413Z,6.32
2022-09-04T00:51:49.111Z,9.93
2022-09-04T00:53:21.260Z,5.97
2022-09-04T00:54:48.142Z,9.50
2022-09-04T00:56:12.099Z,8.05
2022-09-04T00:57:44.436Z,6.35
2022-09-04T00:59:28.769Z,7.30
2022-09-04T01:00:31.160Z,6.63
2022-09-04T01:01:36.606Z,7.88
2022-09-04T01:03:13.192Z,6.10
2022-09-04T01:04:32.333Z,5.60
2022-09-04T01:06:02.229Z,6.80
2022-09-04T01:07:38.210Z,5.60
2022-09-04T01:08:40.692Z,11.20
2022-09-04T01:10:16.429Z,7.38
2022-09-04T01:11:27.535Z,9.55
2022-09-04T01:12:42.338Z,8.68
2022-09-04T01:14:12.998Z,8.57
2022-09-04T01:15:21.948Z,10.57
2022-09-04T01:16:29.556Z,9.65
2022-09-04T01:17:48.715Z,9.65
2022-09-04T01:19:21.430Z,6.15
2022-09-04T01:20:29.625Z,8.02
2022-09-04T01:22:02.636Z,6.75
2022-09-04T01:23:35.469Z,10.75
2022-09-04T01:24:46.413Z,7.45
2022-09-04T01:26:09.247Z,10.45
2022-09-04T01:27:47.597Z,7.88
2022-09-04T01:29:11.900Z,8.32
2022-09-04T01:30:21.515Z,4.32
2022-09-04T01:32:01.366Z,8.10
2022-09-04T01:33:06.343Z,6.25
2022-09-04T01:34:17.530Z,10.02
2022-09-04T01:35:41.859Z,5.68
2022-09-04T01:37:03.728Z,8.85
2022-09-04T01:38:31.038Z,6.25
2022-09-04T01:39:36.923Z,6.60
2022-09-04T01:41:13.134Z,5.75
2022-09-04T01:42:23.166Z,7.80
2022-09-04T01:43:25.893Z,5.72
2022-09-04T01:44:30.233Z,4.82
2022-09-04T01:45:55.033Z,7.07
2022-09-04T01:47:22.371Z,8.00
2022-09-04T01:48:38.790Z,7.65
2022-09-04T01:49:53.719Z,12.30
2022-09-04T01:51:00.976Z,9.32
2022-09-04T01:52:29.986Z,12.40
2022-09-04T01:53:37.112Z,9.38
2022-09-04T01:55:09.721Z,7.38
2022-09-04T01:56:28.921Z,7.47
2022-09-04T01:58:03.266Z,5.68
2022-09-04T01:59:17.397Z,6.65
2022-09-04T02:00:23.175Z,7.25
2022-09-04T02:01:44.344Z,6.97
2022-09-04T02:02:50.461Z,7.43
2022-09-04T02:04:11.917Z,7.13
2022-09-04T02:05:18.921Z,8.77
2022-09-04T02:06:41.557Z,8.20
2022-09-04T02:08:03.366Z,7.63
2022-09-04T02:09:36.879Z,9.27
2022-09-04T02:11:59.277Z,9.27
2022-09-04T02:13:04.792Z,6.47
2022-09-04T02:14:26.963Z,9.27
2022-09-04T02:15:43.818Z,6.47
2022-09-04T02:17:00.319Z,20.85
2022-09-04T02:18:17.294Z,14.57
2022-09-04T02:19:36.680Z,8.98
2022-09-04T02:20:47.034Z,8.75
2022-09-04T02:22:26.709Z,6.75
2022-09-04T02:23:54.401Z,9.27
2022-09-04T02:25:30.267Z,7.75
2022-09-04T02:27:05.783Z,7.18
2022-09-04T02:28:19.768Z,6.35
2022-09-04T02:29:48.014Z,8.45
2022-09-04T02:30:56.235Z,7.28
2022-09-04T02:32:09.624Z,7.38
2022-09-04T02:33:26.458Z,6.32
2022-09-04T02:34:45.519Z,8.10
2022-09-04T02:36:02.537Z,10.45
2022-09-04T02:37:11.954Z,5.57
2022-09-04T02:38:35.626Z,5.40
2022-09-04T02:39:53.865Z,5.88
2022-09-04T02:40:58.870Z,6.20
2022-09-04T02:42:32.200Z,5.65
2022-09-04T02:43:46.200Z,7.10
2022-09-04T02:45:18.557Z,5.95
2022-09-04T02:46:27.102Z,4.93
2022-09-04T02:47:38.133Z,6.53
2022-09-04T02:49:02.252Z,5.90
2022-09-04T02:50:26.269Z,5.95
2022-09-04T02:51:49.854Z,8.02
2022-09-04T02:53:18.321Z,7.88
2022-09-04T02:54:35.961Z,5.03
2022-09-04T02:56:00.096Z,4.68
2022-09-04T02:57:39.385Z,8.05
2022-09-04T02:59:15.540Z,8.10
2022-09-04T03:00:21.649Z,5.22
2022-09-04T03:01:53.353Z,7.70
2022-09-04T03:03:05.418Z,10.50
2022-09-04T03:04:18.120Z,4.38
2022-09-04T03:05:25.264Z,6.47
2022-09-04T03:06:51.070Z,6.45
2022-09-04T03:07:58.500Z,5.95
2022-09-04T03:09:10.320Z,9.27
2022-09-04T03:10:27.608Z,7.65
2022-09-04T03:11:41.562Z,6.28
2022-09-04T03:12:56.341Z,6.72
2022-09-04T03:14:19.845Z,6.03
2022-09-04T03:15:36.801Z,5.78
2022-09-04T03:16:57.031Z,7.45
2022-09-04T03:18:21.095Z,7.07
2022-09-04T03:19:35.440Z,5.88
2022-09-04T03:20:51.240Z,5.78
2022-09-04T03:22:00.680Z,6.18
2022-09-04T03:23:24.765Z,9.23
2022-09-04T03:24:39.456Z,6.10
2022-09-04T03:26:01.830Z,6.85
2022-09-04T03:27:10.314Z,5.05
2022-09-04T03:28:51.071Z,7.45
2022-09-04T03:29:57.955Z,8.77
2022-09-04T03:31:07.110Z,6.05
2022-09-04T03:32:39.982Z,11.38
2022-09-04T03:33:49.437Z,6.13
2022-09-04T03:34:59.325Z,6.47
2022-09-04T03:36:18.865Z,7.70
2022-09-04T03:37:23.650Z,6.82
2022-09-04T03:38:33.755Z,11.00
2022-09-04T03:39:39.211Z,5.38
2022-09-04T03:40:48.757Z,6.28
2022-09-04T03:42:09.626Z,6.22
2022-09-04T03:43:20.540Z,5.32
2022-09-04T03:44:47.428Z,4.95
2022-09-04T03:46:00.279Z,7.03
2022-09-04T03:47:38.429Z,15.90
2022-09-04T03:48:52.963Z,6.00
2022-09-04T03:50:09.900Z,7.18
2022-09-04T03:51:25.700Z,6.95
2022-09-04T03:52:45.347Z,8.05
2022-09-04T03:53:59.593Z,4.90
2022-09-04T03:55:21.496Z,8.02
2022-09-04T03:56:58.716Z,5.53
2022-09-04T03:58:23.587Z,5.03
2022-09-04T03:59:45.730Z,6.32
2022-09-04T04:01:13.184Z,5.50
2022-09-04T04:02:47.278Z,7.00
2022-09-04T04:03:55.672Z,8.07
2022-09-04T04:05:16.404Z,6.88
2022-09-04T04:06:31.397Z,4.55
2022-09-04T04:07:50.894Z,9.40
2022-09-04T04:09:35.195Z,7.45
2022-09-04T04:11:05.346Z,5.72
2022-09-04T04:12:29.664Z,6.28
2022-09-04T04:14:05.659Z,7.28
2022-09-04T04:15:21.622Z,5.00
2022-09-04T04:16:59.981Z,8.95
2022-09-04T04:18:44.122Z,6.78
2022-09-04T04:20:17.538Z,8.63
2022-09-04T04:22:41.385Z,6.53
2022-09-04T04:24:18.317Z,5.72
2022-09-04T04:25:26.704Z,8.00
2022-09-04T04:27:03.965Z,5.32
2022-09-04T04:28:31.373Z,7.35
2022-09-04T04:29:45.901Z,7.13
2022-09-04T04:30:53.248Z,4.93
2022-09-04T04:32:11.160Z,5.90
2022-09-04T04:33:32.456Z,8.13
2022-09-04T04:34:47.216Z,8.27
2022-09-04T04:35:52.144Z,7.20
2022-09-04T04:37:10.964Z,6.75
2022-09-04T04:38:31.022Z,7.07
2022-09-04T04:39:48.373Z,8.15
2022-09-04T04:41:01.669Z,4.80
2022-09-04T04:42:10.189Z,5.78
2022-09-04T04:43:21.295Z,5.72
2022-09-04T04:44:53.478Z,4.80
2022-09-04T04:46:22.215Z,4.55
2022-09-04T04:47:58.606Z,7.45
2022-09-04T04:49:59.663Z,7.47
2022-09-04T05:49:26.830Z,6.90
2022-09-04T05:50:45.621Z,5.93
2022-09-04T05:52:11.093Z,5.88
2022-09-04T05:53:16.059Z,6.70
2022-09-04T05:54:37.076Z,7.47
2022-09-04T05:56:12.567Z,4.88
2022-09-04T05:57:28.036Z,6.63
2022-09-04T05:58:48.433Z,4.45
2022-09-04T06:00:07.343Z,3.83
2022-09-04T06:01:31.759Z,5.38
2022-09-04T06:02:55.047Z,4.40
2022-09-04T06:04:20.981Z,3.55
2022-09-04T06:05:41.216Z,4.68
2022-09-04T06:07:17.258Z,5.38
2022-09-04T06:08:29.009Z,6.53
2022-09-04T06:09:33.982Z,4.53
2022-09-04T06:11:14.917Z,3.65
2022-09-04T06:12:47.990Z,4.30
2022-09-04T06:14:11.570Z,4.03
2022-09-04T06:15:26.737Z,4.57
2022-09-04T06:16:41.382Z,3.50
2022-09-04T06:18:09.790Z,5.90
2022-09-04T06:19:21.932Z,5.57
2022-09-04T06:20:47.976Z,3.33
2022-09-04T06:22:27.800Z,5.38
2022-09-04T06:23:32.940Z,4.63
2022-09-04T06:24:40.971Z,4.80
2022-09-04T06:26:04.315Z,3.38
2022-09-04T06:27:35.419Z,3.38
2022-09-04T06:28:43.828Z,4.53
2022-09-04T06:29:57.499Z,8.63
2022-09-04T06:31:21.402Z,5.65
2022-09-04T06:32:58.117Z,8.80
2022-09-04T06:34:22.363Z,5.13
2022-09-04T06:35:44.466Z,5.43
2022-09-04T06:37:45.508Z,4.78
2022-09-04T06:39:16.961Z,4.35
2022-09-04T06:40:22.687Z,7.00
2022-09-04T06:42:09.419Z,5.57
2022-09-04T06:43:27.468Z,5.95
2022-09-04T06:44:56.237Z,9.82
2022-09-04T06:46:03.095Z,13.43
2022-09-04T06:47:20.587Z,8.27
2022-09-04T06:49:05.895Z,6.75
2022-09-04T06:50:21.316Z,6.32
2022-09-04T06:51:59.031Z,5.40
2022-09-04T06:53:19.883Z,4.70
2022-09-04T06:54:22.192Z,4.75
2022-09-04T06:55:28.004Z,10.30
2022-09-04T06:56:56.731Z,7.88
2022-09-04T06:58:41.133Z,5.68
2022-09-04T07:00:04.503Z,6.32
2022-09-04T07:01:13.799Z,9.50
2022-09-04T07:03:02.779Z,9.75
2022-09-04T07:04:39.701Z,8.10
2022-09-04T07:05:58.133Z,6.90
2022-09-04T07:07:19.737Z,4.72
2022-09-04T07:08:27.679Z,4.55
2022-09-04T07:09:32.299Z,5.97
2022-09-04T07:10:40.198Z,6.38
2022-09-04T07:12:27.713Z,5.10
2022-09-04T07:13:48.167Z,5.03
2022-09-04T07:15:12.421Z,6.75
2022-09-04T07:16:31.096Z,6.22
2022-09-04T07:17:37.906Z,4.88
2022-09-04T07:19:11.568Z,3.50
2022-09-04T07:20:22.616Z,3.72
2022-09-04T07:22:03.953Z,4.45
2022-09-04T07:23:23.702Z,3.67
2022-09-04T07:24:26.838Z,6.80
2022-09-04T07:25:45.837Z,3.97
2022-09-04T07:26:54.906Z,2.85
2022-09-04T07:28:19.356Z,3.60
2022-09-04T07:29:47.587Z,4.60
2022-09-04T07:31:17.185Z,3.92
2022-09-04T07:32:27.148Z,5.38
2022-09-04T07:33:32.384Z,5.03
2022-09-04T07:34:49.539Z,4.45
2022-09-04T07:36:01.276Z,4.15
2022-09-04T07:37:24.974Z,5.05
2022-09-04T07:38:36.106Z,5.28
2022-09-04T07:40:09.045Z,4.85
2022-09-04T07:41:22.588Z,4.47
2022-09-04T07:42:57.678Z,5.75
2022-09-04T07:44:33.455Z,4.40
2022-09-04T07:45:56.995Z,5.13
2022-09-04T07:47:14.180Z,5.38
2022-09-04T07:48:42.305Z,4.57
2022-09-04T07:50:01.376Z,6.30
2022-09-04T07:51:10.063Z,5.70
2022-09-04T07:52:19.989Z,4.55
2022-09-04T07:53:38.024Z,4.97
2022-09-04T07:54:59.021Z,5.30
2022-09-04T07:56:16.512Z,5.43
2022-09-04T07:58:02.373Z,4.32
2022-09-04T07:59:29.254Z,5.55
2022-09-04T08:00:50.178Z,6.18
2022-09-04T08:02:06.784Z,3.17
2022-09-04T08:03:54.051Z,4.28
2022-09-04T08:05:09.783Z,4.03
2022-09-04T08:06:15.067Z,2.85
2022-09-04T08:07:48.702Z,2.70
2022-09-04T08:09:15.020Z,4.28
2022-09-04T08:10:32.781Z,4.82
2022-09-04T08:11:45.442Z,3.10
2022-09-04T08:12:56.588Z,3.22
2022-09-04T08:14:25.255Z,3.38
2022-09-04T08:16:05.729Z,3.63
2022-09-04T08:17:25.227Z,4.03
2022-09-04T08:19:01.528Z,3.28
2022-09-04T08:20:16.618Z,2.85
2022-09-04T08:21:21.523Z,4.07
2022-09-04T08:22:32.584Z,4.30
2022-09-04T08:23:53.480Z,4.32
2022-09-04T08:25:14.277Z,6.95
2022-09-04T08:26:47.470Z,4.95
2022-09-04T08:28:09.490Z,2.38
2022-09-04T08:29:40.140Z,4.22
2022-09-04T08:30:54.001Z,1.90
2022-09-04T08:32:21.202Z,3.42
2022-09-04T08:33:41.401Z,3.45
2022-09-04T08:34:51.597Z,4.07
2022-09-04T08:36:21.755Z,5.20
2022-09-04T08:37:38.954Z,3.90
2022-09-04T08:39:07.676Z,3.33
2022-09-04T08:40:28.634Z,3.78
2022-09-04T08:41:52.643Z,3.80
2022-09-04T08:43:24.841Z,3.13
2022-09-04T08:44:43.745Z,3.70
2022-09-04T08:45:45.984Z,3.63
2022-09-04T08:46:58.239Z,4.18
2022-09-04T08:48:22.025Z,5.07
2022-09-04T08:49:29.960Z,4.30
2022-09-04T08:50:51.307Z,3.33
2022-09-04T08:52:24.730Z,1.98
2022-09-04T08:53:54.695Z,9.02
2022-09-04T08:55:29.413Z,2.75
2022-09-04T08:57:10.860Z,2.35
2022-09-04T08:58:47.957Z,2.90
2022-09-04T09:00:17.194Z,6.00
2022-09-04T09:01:41.895Z,2.53
2022-09-04T09:02:56.340Z,4.00
2022-09-04T09:04:17.102Z,2.75
2022-09-04T09:05:41.259Z,4.70
2022-09-04T09:06:55.909Z,5.75
2022-09-04T09:08:03.919Z,5.63
2022-09-04T09:09:27.743Z,5.30
2022-09-04T09:10:29.995Z,3.05
2022-09-04T09:11:47.143Z,3.72
2022-09-04T09:13:21.721Z,2.55
2022-09-04T09:14:57.396Z,5.38
2022-09-04T09:16:25.858Z,4.88
2022-09-04T09:18:00.448Z,3.33
2022-09-04T09:19:33.748Z,2.60
2022-09-04T09:21:13.622Z,7.35
2022-09-04T09:22:21.466Z,2.55
2022-09-04T09:23:44.427Z,4.18
2022-09-04T09:25:14.356Z,3.28
2022-09-04T09:26:16.617Z,2.33
2022-09-04T09:27:33.592Z,2.78
2022-09-04T09:28:54.520Z,2.58
2022-09-04T09:30:21.551Z,6.68
2022-09-04T09:31:46.489Z,4.20
2022-09-04T09:33:09.901Z,2.25
2022-09-04T09:34:34.110Z,2.53
2022-09-04T09:36:06.426Z,3.85
2022-09-04T09:37:36.407Z,3.97
2022-09-04T09:38:49.305Z,3.40
2022-09-04T09:40:10.201Z,2.75
2022-09-04T09:41:33.840Z,2.25
2022-09-04T09:42:50.027Z,2.20
2022-09-04T09:44:01.298Z,2.35
2022-09-04T09:45:31.848Z,3.30
2022-09-04T09:46:43.121Z,1.83
2022-09-04T09:47:54.158Z,3.40
2022-09-04T09:49:15.523Z,1.58
2022-09-04T09:51:04.695Z,3.60
2022-09-04T09:52:27.550Z,2.50
2022-09-04T09:55:37.074Z,2.92
2022-09-04T09:57:11.032Z,2.40
2022-09-04T09:58:31.587Z,1.73
2022-09-04T09:59:55.380Z,7.30
2022-09-04T10:01:34.375Z,2.92
2022-09-04T10:02:55.712Z,1.65
2022-09-04T10:04:09.982Z,3.47
2022-09-04T10:06:01.087Z,2.13
2022-09-04T10:07:21.155Z,4.80
2022-09-04T10:08:54.169Z,2.17
2022-09-04T10:10:33.874Z,2.13
2022-09-04T10:12:13.612Z,2.22
2022-09-04T10:13:34.346Z,3.28
2022-09-04T10:15:16.481Z,3.58
2022-09-04T10:16:24.546Z,2.03
2022-09-04T10:18:07.087Z,3.58
2022-09-04T10:19:18.251Z,2.65
2022-09-04T10:20:57.767Z,3.20
2022-09-04T10:22:20.976Z,3.10
2022-09-04T10:23:31.125Z,4.78
2022-09-04T10:24:53.497Z,2.53
2022-09-04T10:26:07.390Z,4.82
2022-09-04T10:27:48.123Z,1.90
2022-09-04T10:29:09.979Z,2.38
2022-09-04T10:30:26.636Z,3.20
2022-09-04T10:31:53.103Z,2.97
2022-09-04T10:33:19.327Z,2.95
2022-09-04T10:34:39.515Z,3.95
2022-09-04T10:36:18.483Z,2.30
2022-09-04T10:37:58.150Z,2.40
2022-09-04T10:39:37.853Z,7.70
2022-09-04T10:41:05.529Z,1.92
2022-09-04T10:42:23.104Z,2.40
2022-09-04T10:43:43.952Z,3.85
2022-09-04T10:45:07.006Z,3.83
2022-09-04T10:46:22.782Z,2.63
2022-09-04T10:48:04.571Z,2.08
2022-09-04T10:49:30.277Z,1.90
2022-09-04T10:51:01.808Z,1.80
2022-09-04T10:52:24.658Z,2.22
2022-09-04T10:54:47.538Z,4.18
2022-09-04T10:56:09.182Z,3.60
2022-09-04T10:57:48.810Z,1.95
2022-09-04T10:59:17.050Z,1.35
2022-09-04T11:00:21.733Z,3.35
2022-09-04T11:02:02.383Z,2.28
2022-09-04T11:03:25.635Z,2.65
2022-09-04T11:04:45.674Z,6.53
2022-09-04T11:06:02.292Z,4.32
2022-09-04T11:07:10.485Z,2.55
2022-09-04T11:08:36.845Z,5.43
2022-09-04T11:10:04.369Z,2.28
2022-09-04T11:11:25.159Z,1.83
2022-09-04T11:12:48.969Z,1.85
2022-09-04T11:14:18.581Z,2.55
2022-09-04T11:15:41.330Z,2.05
2022-09-04T11:17:00.281Z,2.15
2022-09-04T11:18:34.676Z,2.85
2022-09-04T11:20:17.607Z,2.28
2022-09-04T11:21:29.155Z,2.13
2022-09-04T11:22:55.960Z,2.45
2022-09-04T11:24:23.558Z,2.60
2022-09-04T11:25:52.089Z,3.47
2022-09-04T11:27:19.876Z,5.88
2022-09-04T11:28:31.311Z,2.90
2022-09-04T11:30:02.327Z,2.45
2022-09-04T11:31:17.159Z,3.35
2022-09-04T11:33:08.985Z,3.22
2022-09-04T11:34:22.969Z,2.78
2022-09-04T11:35:46.775Z,2.03
2022-09-04T11:37:10.523Z,2.25
2022-09-04T11:38:18.975Z,4.55
2022-09-04T11:39:52.151Z,2.00
2022-09-04T11:42:08.326Z,2.58
2022-09-04T11:43:30.170Z,2.63
2022-09-04T11:45:10.263Z,3.03
2022-09-04T11:46:27.339Z,2.17
2022-09-04T11:47:36.568Z,2.25
2022-09-04T11:48:57.259Z,4.63
2022-09-04T11:50:43.530Z,3.38
2022-09-04T11:52:10.107Z,1.77
2022-09-04T11:53:19.476Z,2.15
2022-09-04T11:54:55.705Z,2.40
2022-09-04T11:56:19.597Z,2.83
2022-09-04T11:57:27.761Z,1.95
2022-09-04T11:59:01.006Z,2.60
2022-09-04T12:01:21.725Z,3.40
2022-09-04T12:02:23.979Z,1.17
2022-09-04T12:03:52.513Z,1.10
2022-09-04T12:05:16.205Z,2.60
2022-09-04T12:06:24.029Z,2.00
2022-09-04T12:07:55.580Z,2.63
2022-09-04T12:09:00.460Z,2.72
2022-09-04T12:10:49.656Z,2.97
2022-09-04T12:12:22.522Z,3.78
2022-09-04T12:13:40.058Z,1.67
2022-09-04T12:15:14.486Z,2.50
2022-09-04T12:16:44.523Z,2.55
2022-09-04T12:18:21.145Z,3.70
2022-09-04T12:19:33.062Z,2.72
2022-09-04T12:20:41.092Z,1.42
2022-09-04T12:22:11.222Z,2.08
2022-09-04T12:23:32.848Z,2.47
2022-09-04T12:25:00.813Z,2.08
2022-09-04T12:26:51.675Z,2.85
2022-09-04T12:27:54.896Z,2.70
2022-09-04T12:29:22.630Z,2.00
2022-09-04T12:30:48.479Z,3.45
2022-09-04T12:32:09.237Z,1.98
2022-09-04T12:33:26.329Z,1.55
2022-09-04T12:34:46.408Z,4.80
2022-09-04T12:36:20.448Z,4.50
2022-09-04T12:37:43.694Z,1.85
2022-09-04T12:38:52.617Z,3.25
2022-09-04T12:40:25.799Z,2.35
2022-09-04T12:41:55.702Z,1.38
2022-09-04T12:43:16.780Z,2.50
2022-09-04T12:44:48.653Z,2.00
2022-09-04T12:46:18.435Z,2.85
2022-09-04T12:47:28.398Z,2.60
2022-09-04T12:48:56.696Z,2.75
2022-09-04T12:50:16.973Z,1.80
2022-09-04T12:51:26.504Z,3.72
2022-09-04T12:53:08.630Z,4.32
2022-09-04T12:54:34.401Z,1.23
2022-09-04T12:55:45.746Z,3.88
2022-09-04T12:57:11.593Z,1.73
2022-09-04T12:58:17.580Z,1.95
2022-09-04T12:59:30.459Z,2.28
2022-09-04T13:00:48.760Z,2.25
2022-09-04T13:02:17.253Z,3.88
2022-09-04T13:03:27.437Z,2.90
2022-09-04T13:04:44.611Z,3.00
2022-09-04T13:06:03.996Z,4.57
2022-09-04T13:07:33.665Z,2.38
2022-09-04T13:08:57.435Z,1.77
2022-09-04T13:10:44.678Z,2.47
2022-09-04T13:12:04.054Z,3.63
2022-09-04T13:13:23.098Z,1.50
2022-09-04T13:15:03.920Z,3.78
2022-09-04T13:16:32.998Z,2.85
2022-09-04T13:18:10.485Z,2.83
2022-09-04T13:19:31.420Z,3.65
2022-09-04T13:21:03.221Z,2.97
2022-09-04T13:22:23.952Z,2.22
2022-09-04T13:23:57.146Z,2.95
2022-09-04T13:25:14.775Z,2.47
2022-09-04T13:26:38.253Z,3.75
2022-09-04T13:27:57.472Z,1.00
2022-09-04T13:29:25.328Z,3.90
2022-09-04T13:30:29.121Z,3.03
2022-09-04T13:32:06.605Z,2.88
2022-09-04T13:33:15.819Z,1.92
2022-09-04T13:34:26.834Z,2.13
2022-09-04T13:35:59.276Z,2.92
2022-09-04T13:37:23.531Z,3.33
2022-09-04T13:39:03.311Z,2.67
2022-09-04T13:40:26.439Z,3.58
2022-09-04T13:41:57.442Z,2.15
2022-09-04T13:43:19.822Z,1.98
2022-09-04T13:45:03.874Z,1.98
2022-09-04T13:46:17.269Z,2.45
2022-09-04T13:47:32.502Z,3.17
2022-09-04T13:48:59.626Z,3.42
2022-09-04T13:50:22.480Z,1.92
2022-09-04T13:51:32.940Z,3.13
2022-09-04T13:52:50.049Z,2.33
2022-09-04T13:54:37.402Z,2.80
2022-09-04T13:55:49.804Z,2.67
2022-09-04T13:57:03.534Z,1.95
2022-09-04T13:58:14.090Z,1.98
2022-09-04T13:59:18.509Z,2.70
2022-09-04T14:00:21.422Z,1.42
2022-09-04T14:01:27.853Z,1.77
2022-09-04T14:02:31.785Z,5.85
2022-09-04T14:03:57.918Z,1.40
2022-09-04T14:05:11.755Z,1.90
2022-09-04T14:06:17.204Z,1.73
2022-09-04T14:07:29.646Z,1.65
2022-09-04T14:09:42.366Z,1.95
2022-09-04T14:10:56.112Z,2.30
2022-09-04T14:12:13.469Z,3.83
2022-09-04T14:13:37.346Z,1.05
2022-09-04T14:15:03.049Z,1.23
2022-09-04T14:16:11.020Z,2.95
2022-09-04T14:17:13.312Z,4.88
2022-09-04T14:18:37.202Z,1.42
2022-09-04T14:19:47.664Z,2.03
2022-09-04T14:21:01.267Z,2.17
2022-09-04T14:22:28.504Z,1.52
2022-09-04T14:24:20.152Z,1.75
2022-09-04T14:26:04.996Z,2.00
2022-09-04T14:27:28.778Z,1.73
2022-09-04T14:28:58.173Z,3.55
2022-09-04T14:30:07.273Z,2.67
2022-09-04T14:31:50.590Z,1.80
2022-09-04T14:33:19.412Z,1.90
2022-09-04T14:35:02.241Z,1.63
2022-09-04T14:36:42.734Z,2.75
2022-09-04T14:38:14.516Z,1.77
2022-09-04T14:39:43.246Z,3.65
2022-09-04T14:41:16.161Z,3.38
2022-09-04T14:42:48.007Z,3.47
2022-09-04T14:44:04.124Z,2.30
2022-09-04T14:45:18.532Z,2.75
2022-09-04T14:46:28.565Z,3.92
2022-09-04T14:47:40.605Z,2.60
2022-09-04T14:48:51.129Z,1.65
2022-09-04T14:49:56.411Z,1.52
2022-09-04T14:51:31.208Z,2.03
2022-09-04T14:52:41.121Z,2.05
2022-09-04T14:53:50.238Z,3.72
2022-09-04T14:54:55.137Z,3.25
2022-09-04T14:56:12.581Z,3.28
2022-09-04T14:58:13.556Z,3.65
2022-09-04T14:59:24.158Z,9.63
2022-09-04T15:00:29.194Z,5.85
2022-09-04T15:01:35.574Z,2.00
2022-09-04T15:02:42.600Z,1.45
2022-09-04T15:03:50.945Z,2.25
2022-09-04T15:05:03.098Z,1.25
2022-09-04T15:06:17.873Z,2.17
2022-09-04T15:07:49.493Z,1.60
2022-09-04T15:08:53.807Z,2.83
2022-09-04T15:10:10.447Z,1.73
2022-09-04T15:11:31.643Z,3.63
2022-09-04T15:12:39.141Z,1.35
2022-09-04T15:14:04.987Z,1.67
2022-09-04T15:15:15.963Z,1.10
2022-09-04T15:16:22.498Z,1.50
2022-09-04T15:17:29.867Z,3.20
2022-09-04T15:19:14.162Z,3.92
2022-09-04T15:20:22.582Z,1.83
2022-09-04T15:21:36.367Z,1.67
2022-09-04T15:23:01.276Z,1.25
2022-09-04T15:24:37.985Z,2.45
2022-09-04T15:26:03.192Z,4.88
2022-09-04T15:27:29.579Z,1.15
2022-09-04T15:28:42.485Z,2.63
2022-09-04T15:29:53.540Z,2.38
2022-09-04T15:31:15.955Z,1.88
2022-09-04T15:32:36.601Z,1.95
2022-09-04T15:33:40.822Z,1.92
2022-09-04T15:34:43.325Z,1.55
2022-09-04T15:36:04.214Z,4.30
2022-09-04T15:37:28.343Z,1.60
2022-09-04T15:38:32.806Z,2.60
2022-09-04T15:40:01.208Z,3.33
2022-09-04T15:41:17.441Z,1.83
2022-09-04T15:42:39.206Z,3.78
2022-09-04T15:44:06.123Z,1.83
2022-09-04T15:45:29.911Z,1.98
2022-09-04T15:46:45.964Z,3.38
2022-09-04T15:48:18.354Z,2.78
2022-09-04T15:49:44.935Z,1.83
2022-09-04T15:51:23.520Z,1.38
2022-09-04T15:52:55.041Z,1.48
2022-09-04T15:54:29.086Z,2.35
2022-09-04T15:55:35.699Z,3.75
2022-09-04T15:56:46.511Z,1.95
2022-09-04T15:58:23.993Z,2.42
2022-09-04T15:59:40.206Z,3.22
2022-09-04T16:01:06.040Z,1.65
2022-09-04T16:02:24.291Z,2.28
2022-09-04T16:03:43.215Z,1.83
2022-09-04T16:05:09.530Z,2.10
2022-09-04T16:06:27.162Z,2.15
2022-09-04T16:08:03.592Z,1.33
2022-09-04T16:09:21.050Z,2.97
2022-09-04T16:10:28.697Z,1.52
2022-09-04T16:11:34.227Z,1.02
2022-09-04T16:12:57.922Z,1.63
2022-09-04T16:14:04.689Z,1.80
2022-09-04T16:15:24.052Z,1.75
2022-09-04T16:16:32.214Z,1.52
2022-09-04T16:17:44.431Z,1.70
2022-09-04T16:18:54.842Z,2.40
2022-09-04T16:20:07.609Z,1.50
2022-09-04T16:21:43.182Z,2.42
2022-09-04T16:22:51.429Z,2.53
2022-09-04T16:23:59.684Z,2.08
2022-09-04T16:25:10.192Z,1.90
2022-09-04T16:26:17.419Z,3.90
2022-09-04T16:27:26.159Z,2.40
2022-09-04T16:28:45.539Z,1.77
2022-09-04T16:29:52.876Z,2.22
2022-09-04T16:31:02.294Z,1.55
2022-09-04T16:32:09.588Z,1.85
2022-09-04T16:33:28.547Z,1.85
2022-09-04T16:34:37.601Z,8.43
2022-09-04T16:35:43.194Z,2.63
2022-09-04T16:36:51.478Z,1.58
2022-09-04T16:38:02.805Z,2.28
2022-09-04T16:39:14.402Z,1.10
2022-09-04T16:40:34.049Z,1.13
2022-09-04T16:41:44.835Z,1.63
2022-09-04T16:42:55.077Z,2.88
2022-09-04T16:44:25.925Z,1.35
2022-09-04T16:45:39.252Z,1.05
2022-09-04T16:47:02.493Z,1.05
2022-09-04T16:48:33.684Z,2.85
2022-09-04T16:50:02.376Z,1.65
2022-09-04T16:51:39.401Z,1.80
2022-09-04T16:52:37.348Z,3.00
2022-09-04T16:53:42.654Z,2.13
2022-09-04T16:54:52.900Z,2.53
2022-09-04T16:56:07.975Z,1.52
2022-09-04T16:57:15.321Z,1.83
2022-09-04T16:58:54.689Z,4.10
2022-09-04T17:00:02.150Z,2.05
2022-09-04T17:01:17.932Z,1.67
2022-09-04T17:02:24.217Z,2.85
2022-09-04T17:03:43.262Z,1.35
2022-09-04T17:05:03.686Z,1.77
2022-09-04T17:06:18.251Z,4.03
2022-09-04T17:07:37.287Z,3.05
2022-09-04T17:08:46.468Z,3.17
2022-09-04T17:10:20.838Z,1.77
2022-09-04T17:11:55.597Z,2.13
2022-09-04T17:13:07.027Z,3.35
2022-09-04T17:14:32.217Z,3.15
2022-09-04T17:15:53.613Z,1.38
2022-09-04T17:17:12.579Z,2.80
2022-09-04T17:18:30.254Z,1.60
2022-09-04T17:19:33.261Z,1.30
2022-09-04T17:22:13.000Z,2.50
2022-09-04T17:28:54.218Z,2.15
2022-09-04T17:28:55.487Z,2.97
2022-09-04T17:29:08.058Z,1.92
2022-09-04T17:29:08.798Z,2.50
2022-09-04T17:29:16.014Z,2.90
2022-09-04T17:30:25.656Z,2.05
2022-09-04T17:31:57.410Z,3.33
2022-09-04T17:38:56.373Z,1.60
2022-09-04T17:40:34.986Z,3.30
2022-09-04T17:40:42.244Z,2.05
2022-09-04T17:41:30.068Z,4.43
2022-09-04T17:41:40.761Z,3.90
2022-09-04T17:42:10.363Z,1.42
2022-09-04T17:43:33.401Z,2.00
2022-09-04T17:44:56.684Z,2.42
2022-09-04T17:46:02.274Z,3.17
2022-09-04T17:47:13.664Z,1.52
2022-09-04T17:48:24.344Z,6.18
2022-09-04T17:49:34.318Z,5.35
2022-09-04T17:50:49.858Z,1.85
2022-09-04T17:51:58.026Z,1.83
2022-09-04T17:53:01.849Z,2.03
2022-09-04T17:54:12.001Z,2.10
2022-09-04T17:55:16.696Z,2.25
2022-09-04T17:56:26.215Z,2.70
2022-09-04T17:57:58.862Z,1.65
2022-09-04T17:59:09.066Z,2.97
2022-09-04T18:00:20.460Z,1.35
2022-09-04T18:01:31.241Z,2.13
2022-09-04T18:02:42.839Z,2.83
2022-09-04T18:04:20.877Z,3.70
2022-09-04T18:05:36.337Z,2.75
2022-09-04T18:06:51.482Z,1.30
2022-09-04T18:08:16.951Z,2.08
2022-09-04T18:09:27.431Z,1.42
2022-09-04T18:10:34.275Z,1.63
2022-09-04T18:12:00.843Z,3.28
2022-09-04T18:13:44.783Z,6.95
2022-09-04T18:15:33.893Z,3.15
2022-09-04T18:16:36.274Z,2.03
2022-09-04T18:17:51.787Z,3.63
2022-09-04T18:19:28.186Z,2.75
2022-09-04T18:20:37.610Z,3.88
2022-09-04T18:22:07.793Z,1.95
2022-09-04T18:23:46.400Z,2.00
2022-09-04T18:25:17.758Z,4.05
2022-09-04T18:26:46.806Z,4.63
2022-09-04T18:28:12.978Z,5.13
2022-09-04T18:30:34.049Z,5.72
2022-09-04T18:37:09.598Z,1.25
2022-09-04T18:37:11.681Z,2.03
2022-09-04T18:37:25.134Z,4.85
2022-09-04T18:37:25.850Z,4.75
2022-09-04T18:37:44.774Z,3.33
2022-09-04T18:39:09.261Z,2.15
2022-09-04T18:42:31.580Z,2.85
2022-09-04T18:48:09.680Z,2.17
2022-09-04T18:50:22.113Z,4.03
2022-09-04T18:50:36.086Z,3.25
2022-09-04T18:50:48.817Z,2.72
2022-09-04T18:50:50.303Z,3.75
2022-09-04T18:50:52.091Z,4.18
2022-09-04T18:51:37.262Z,4.35
2022-09-04T18:52:42.326Z,2.22
2022-09-04T18:54:02.884Z,6.40
2022-09-04T18:55:15.031Z,4.18
2022-09-04T18:56:22.970Z,3.03
2022-09-04T18:57:33.465Z,2.38
2022-09-04T18:58:44.541Z,4.38
2022-09-04T18:59:53.639Z,2.22
2022-09-04T19:01:15.947Z,4.03
2022-09-04T19:02:33.069Z,2.55
2022-09-04T19:04:19.294Z,5.38
2022-09-04T19:05:36.440Z,2.67
2022-09-04T19:07:13.003Z,3.95
2022-09-04T19:08:49.575Z,2.05
2022-09-04T19:10:25.697Z,3.67
2022-09-04T19:11:39.933Z,3.58